Time;durP1;ratioP1;P1;durP2;ratioP2;P2;SDS_P1;SDS_P2;PMS_P1;PMS_P2;Temp;Humidity;BMP_temperature;BMP_pressure;BME280_temperature;BME280_humidity;BME280_pressure;Samples;Min_cycle;Max_cycle;Signal;HPM_P1;HPM_P2
2022/04/02 00:02:09;;;;;;;9.98;2.42;;;;;;;11.68;57.09;99378.84;5033255;28;20496;-60
2022/04/02 00:04:36;;;;;;;4.47;1.73;;;;;;;11.70;56.60;99384.81;5033210;28;20073;-63
2022/04/02 00:07:03;;;;;;;5.30;2.13;;;;;;;11.69;56.40;99383.13;5033125;28;20120;-60
2022/04/02 00:09:30;;;;;;;7.22;2.22;;;;;;;11.68;56.30;99376.22;5032932;28;20494;-60
2022/04/02 00:11:57;;;;;;;6.38;2.20;;;;;;;11.68;56.47;99381.47;5033183;28;20099;-60
2022/04/02 00:14:23;;;;;;;5.80;1.88;;;;;;;11.68;56.36;99379.69;5032836;28;20490;-60
2022/04/02 00:16:50;;;;;;;8.15;2.38;;;;;;;11.68;56.57;99381.47;5033094;28;20076;-60
2022/04/02 00:19:17;;;;;;;7.25;2.50;;;;;;;11.65;57.12;99376.47;5033033;28;20103;-60
2022/04/02 00:21:43;;;;;;;7.65;2.60;;;;;;;11.65;57.21;99369.41;5032768;28;20053;-60
2022/04/02 00:24:10;;;;;;;8.43;2.72;;;;;;;11.64;57.30;99380.88;5032851;28;20045;-61
2022/04/02 00:26:37;;;;;;;6.57;2.33;;;;;;;11.64;57.48;99383.50;5032772;28;20046;-61
2022/04/02 00:29:06;;;;;;;4.95;2.40;;;;;;;11.62;57.82;99385.44;5032738;28;20049;-60
2022/04/02 00:31:32;;;;;;;5.53;2.05;;;;;;;11.65;57.69;99389.63;5032559;28;20478;-60
2022/04/02 00:33:59;;;;;;;7.93;2.38;;;;;;;11.65;57.77;99397.50;5032799;28;20583;-60
2022/04/02 00:36:26;;;;;;;6.85;2.65;;;;;;;11.62;57.97;99397.72;5032601;28;20057;-60
2022/04/02 00:38:53;;;;;;;3.90;2.20;;;;;;;11.62;58.08;99400.34;5032464;28;20041;-62
2022/04/02 00:41:20;;;;;;;6.75;2.55;;;;;;;11.61;58.03;99394.28;5032491;28;20041;-60
2022/04/02 00:44:10;;;;;;;6.65;2.50;;;;;;;11.62;57.84;99395.97;5032558;28;20053;-66
2022/04/02 00:46:42;;;;;;;7.28;2.38;;;;;;;11.62;57.84;99385.44;5032358;28;20049;-61
2022/04/02 00:49:11;;;;;;;7.18;2.58;;;;;;;11.61;57.87;99399.53;5032423;28;20046;-61
2022/04/02 00:51:42;;;;;;;8.07;2.65;;;;;;;11.62;57.71;99388.06;5032364;28;20056;-60
2022/04/02 00:54:18;;;;;;;7.95;2.30;;;;;;;11.61;57.53;99394.28;5032445;28;20115;-60
2022/04/02 00:56:45;;;;;;;6.20;2.40;;;;;;;11.59;57.76;99390.94;5032225;28;20049;-60
2022/04/02 00:59:12;;;;;;;5.57;2.38;;;;;;;11.57;57.99;99398.94;5032344;28;20046;-61
2022/04/02 01:01:39;;;;;;;6.20;2.80;;;;;;;11.57;58.13;99398.94;5032451;28;20096;-60
2022/04/02 01:04:09;;;;;;;5.22;2.08;;;;;;;11.55;58.32;99390.38;5032206;28;20163;-60
2022/04/02 01:06:35;;;;;;;7.53;2.50;;;;;;;11.56;58.37;99401.72;5032156;28;20107;-64
2022/04/02 01:09:02;;;;;;;7.95;1.90;;;;;;;11.55;58.49;99403.53;5032285;28;20053;-60
2022/04/02 01:11:41;;;;;;;9.02;3.97;;;;;;;11.57;57.97;99408.63;5031930;28;20049;-60
2022/04/02 01:14:07;;;;;;;7.85;2.30;;;;;;;11.56;57.97;99407.78;5036078;28;20052;-61
2022/04/02 01:16:35;;;;;;;7.18;2.10;;;;;;;11.56;58.32;99414.84;5036132;28;20107;-61
2022/04/02 01:19:03;;;;;;;6.72;2.45;;;;;;;11.54;58.37;99414.97;5036357;28;20136;-60
2022/04/02 01:21:31;;;;;;;6.82;2.40;;;;;;;11.53;58.41;99415.94;5036173;28;20063;-60
2022/04/02 01:24:00;;;;;;;8.63;2.22;;;;;;;11.55;58.41;99423.69;5036432;28;20053;-64
2022/04/02 01:26:27;;;;;;;5.15;1.75;;;;;;;11.55;58.20;99421.91;5036122;28;20045;-61
2022/04/02 01:28:56;;;;;;;8.88;1.98;;;;;;;11.52;57.87;99422.16;5036099;28;20054;-60
2022/04/02 01:31:24;;;;;;;5.93;1.85;;;;;;;11.51;57.30;99428.34;5036141;28;20563;-60
2022/04/02 01:33:52;;;;;;;3.90;1.10;;;;;;;11.51;56.57;99428.34;5035245;28;20045;-61
2022/04/02 01:36:20;;;;;;;10.77;1.85;;;;;;;11.53;55.52;99431.69;5035760;28;20054;-60
2022/04/02 01:38:47;;;;;;;3.60;1.55;;;;;;;11.54;54.73;99429.91;5034747;28;20045;-60
2022/04/02 01:41:14;;;;;;;5.35;1.45;;;;;;;11.51;54.46;99425.72;5035812;28;20045;-61
2022/04/02 01:43:42;;;;;;;6.88;1.42;;;;;;;11.47;55.06;99429.56;5035690;28;20049;-60
2022/04/02 01:46:10;;;;;;;6.95;1.30;;;;;;;11.50;55.21;99426.69;5035856;28;20045;-60
2022/04/02 01:48:38;;;;;;;5.97;1.23;;;;;;;11.48;55.04;99428.63;5035792;28;20050;-60
2022/04/02 01:51:05;;;;;;;5.53;1.20;;;;;;;11.44;54.65;99428.03;5035780;28;20054;-61
2022/04/02 01:53:32;;;;;;;2.67;0.77;;;;;;;11.44;53.82;99429.84;5035670;28;20049;-60
2022/04/02 01:55:59;;;;;;;5.18;0.90;;;;;;;11.36;52.94;99440.13;5035663;28;20049;-61
2022/04/02 01:58:26;;;;;;;3.95;0.85;;;;;;;11.32;53.08;99442.16;5035342;28;20045;-60
2022/04/02 02:00:53;;;;;;;6.50;1.45;;;;;;;11.22;53.56;99431.56;5035660;28;20422;-60
2022/04/02 02:03:20;;;;;;;3.60;1.10;;;;;;;11.20;53.61;99428.22;5035423;28;20052;-61
2022/04/02 02:05:47;;;;;;;3.78;0.85;;;;;;;11.23;53.87;99427.97;5035449;28;20092;-61
2022/04/02 02:08:13;;;;;;;4.78;0.80;;;;;;;11.22;54.19;99433.34;5035606;28;20056;-60
2022/04/02 02:10:40;;;;;;;3.20;1.00;;;;;;;11.21;54.26;99429.06;5035256;28;20053;-60
2022/04/02 02:13:07;;;;;;;4.68;1.10;;;;;;;11.19;54.25;99423.94;5035348;28;20048;-60
2022/04/02 02:15:33;;;;;;;4.85;1.80;;;;;;;11.19;54.15;99426.56;5035142;28;20055;-61
2022/04/02 02:18:00;;;;;;;2.25;0.75;;;;;;;11.18;54.71;99426.69;5035277;28;20529;-60
2022/04/02 02:20:27;;;;;;;3.20;0.77;;;;;;;11.15;55.08;99427.75;5034997;28;20552;-61
2022/04/02 02:22:53;;;;;;;3.40;1.40;;;;;;;11.15;55.41;99425.13;5034892;28;20085;-61
2022/04/02 02:25:21;;;;;;;3.55;0.80;;;;;;;11.13;55.70;99419.16;5035174;28;20048;-61
2022/04/02 02:27:47;;;;;;;4.95;0.90;;;;;;;11.11;55.79;99416.66;5035124;28;20073;-60
2022/04/02 02:30:16;;;;;;;2.60;0.70;;;;;;;11.12;55.72;99414.88;5035027;28;20052;-60
2022/04/02 02:32:44;;;;;;;3.55;1.25;;;;;;;11.11;55.53;99407.97;5034818;28;20053;-60
2022/04/02 02:38:08;;;;;;;3.88;0.65;;;;;;;11.10;54.77;99417.63;5034656;28;20052;-60
2022/04/02 02:40:36;;;;;;;4.00;1.10;;;;;;;11.09;54.63;99413.31;5034672;28;20076;-60
2022/04/02 02:43:04;;;;;;;4.38;0.88;;;;;;;11.09;54.56;99415.13;5034879;28;20490;-62
2022/04/02 02:45:31;;;;;;;2.50;1.10;;;;;;;11.08;54.78;99434.47;5034725;28;20061;-61
2022/04/02 02:47:59;;;;;;;7.80;1.40;;;;;;;11.06;54.81;99423.25;5034716;28;20048;-61
2022/04/02 02:50:32;;;;;;;2.05;0.80;;;;;;;11.05;54.96;99429.47;5034677;28;20080;-60
2022/04/02 02:52:58;;;;;;;3.72;1.23;;;;;;;11.03;54.86;99428.75;5034740;28;20417;-60
2022/04/02 02:55:26;;;;;;;4.82;1.13;;;;;;;11.05;54.99;99429.47;5034531;28;20096;-60
2022/04/02 02:57:53;;;;;;;3.22;1.08;;;;;;;11.03;55.01;99423.50;5034641;28;20091;-60
2022/04/02 03:00:19;;;;;;;4.15;0.90;;;;;;;11.00;55.10;99431.63;5034380;28;20119;-61
2022/04/02 03:02:46;;;;;;;2.58;1.00;;;;;;;10.99;55.09;99430.78;5031504;28;20081;-61
2022/04/02 03:05:15;;;;;;;4.15;0.98;;;;;;;10.94;55.36;99431.16;5031209;28;20426;-60
2022/04/02 03:07:48;;;;;;;3.67;1.25;;;;;;;10.95;55.43;99432.81;5031013;28;20045;-60
2022/04/02 03:10:22;;;;;;;3.97;1.00;;;;;;;10.94;55.58;99423.28;5031227;28;20049;-60
2022/04/02 03:12:52;;;;;;;5.82;1.25;;;;;;;10.92;55.60;99434.84;5031247;28;20046;-61
2022/04/02 03:15:20;;;;;;;5.50;1.77;;;;;;;10.91;55.78;99423.50;5031084;28;20051;-64
2022/04/02 03:17:48;;;;;;;4.07;1.20;;;;;;;10.90;55.69;99426.25;5031044;28;20063;-60
2022/04/02 03:20:17;;;;;;;2.83;1.13;;;;;;;10.87;55.65;99429.97;5030971;28;20099;-61
2022/04/02 03:22:45;;;;;;;2.70;1.23;;;;;;;10.89;55.49;99433.31;5030871;28;20041;-64
2022/04/02 03:25:14;;;;;;;5.63;1.35;;;;;;;10.84;55.41;99424.94;5030847;28;20078;-60
2022/04/02 03:27:43;;;;;;;5.68;1.35;;;;;;;10.75;55.65;99431.78;5030736;28;20564;-61
2022/04/02 03:30:12;;;;;;;8.48;1.20;;;;;;;10.73;55.44;99420.56;5031092;28;20053;-60
2022/04/02 03:32:39;;;;;;;7.20;1.27;;;;;;;10.69;55.40;99424.38;5030911;28;20088;-61
2022/04/02 03:35:07;;;;;;;6.55;1.33;;;;;;;10.70;55.42;99425.19;5029680;28;20045;-61
2022/04/02 03:37:36;;;;;;;5.03;1.08;;;;;;;10.65;55.47;99429.97;5030198;28;20410;-60
2022/04/02 03:40:05;;;;;;;5.75;1.08;;;;;;;10.65;55.42;99422.94;5030226;28;20094;-61
2022/04/02 03:42:32;;;;;;;10.55;1.63;;;;;;;10.62;55.39;99428.44;5030351;28;20053;-60
2022/04/02 03:44:59;;;;;;;6.47;0.95;;;;;;;10.59;55.43;99433.94;5030434;28;20052;-60
2022/04/02 03:47:25;;;;;;;3.40;1.00;;;;;;;10.54;55.59;99433.44;5030447;28;20555;-61
2022/04/02 03:49:52;;;;;;;4.70;2.03;;;;;;;10.53;55.55;99424.72;5030622;28;20049;-60
2022/04/02 03:52:19;;;;;;;4.07;1.27;;;;;;;10.51;55.38;99424.00;5030077;28;20502;-61
2022/04/02 03:54:45;;;;;;;5.28;1.20;;;;;;;10.44;55.45;99428.91;5030080;28;20068;-60
2022/04/02 03:57:14;;;;;;;5.18;1.10;;;;;;;10.42;55.39;99435.22;5030215;28;20068;-61
2022/04/02 03:59:42;;;;;;;3.53;1.30;;;;;;;10.43;55.41;99434.28;5030184;28;20052;-61
2022/04/02 04:02:09;;;;;;;4.22;1.00;;;;;;;10.43;55.48;99435.09;5030114;28;20049;-62
2022/04/02 04:04:38;;;;;;;3.90;1.00;;;;;;;10.42;55.40;99440.47;5029975;28;20057;-60
2022/04/02 04:07:06;;;;;;;7.28;2.13;;;;;;;10.35;55.62;99442.69;5029956;28;20461;-60
2022/04/02 04:09:33;;;;;;;6.53;1.20;;;;;;;10.36;55.44;99446.19;5029965;28;20045;-60
2022/04/02 04:12:01;;;;;;;4.38;1.23;;;;;;;10.34;55.69;99441.03;5029829;28;20050;-61
2022/04/02 04:14:28;;;;;;;2.53;0.82;;;;;;;10.33;55.90;99435.91;5029674;28;20045;-60
2022/04/02 04:16:55;;;;;;;3.63;1.05;;;;;;;10.30;55.95;99437.78;5030186;28;20057;-62
2022/04/02 04:19:22;;;;;;;3.78;1.00;;;;;;;10.32;55.89;99444.72;5029760;28;20049;-60
2022/04/02 04:21:49;;;;;;;3.83;1.10;;;;;;;10.23;56.07;99441.00;5029746;28;20083;-61
2022/04/02 04:24:15;;;;;;;3.15;0.80;;;;;;;10.27;55.93;99448.53;5029657;28;20540;-60
2022/04/02 04:26:42;;;;;;;3.28;1.23;;;;;;;10.24;56.16;99450.56;5029639;28;20474;-60
2022/04/02 04:29:09;;;;;;;3.95;1.10;;;;;;;10.25;56.03;99449.59;5029625;28;20057;-60
2022/04/02 04:31:36;;;;;;;3.17;0.80;;;;;;;10.22;55.80;99449.81;5029769;28;20677;-60
2022/04/02 04:34:03;;;;;;;3.25;0.85;;;;;;;10.21;55.96;99451.63;5029543;28;20148;-60
2022/04/02 04:36:30;;;;;;;4.30;0.95;;;;;;;10.20;56.10;99456.97;5029304;28;20046;-61
2022/04/02 04:38:57;;;;;;;1.80;0.88;;;;;;;10.21;56.00;99458.63;5029362;28;20045;-61
2022/04/02 04:41:29;;;;;;;2.92;0.80;;;;;;;10.17;55.87;99463.28;5029444;28;20111;-61
2022/04/02 04:43:56;;;;;;;2.97;0.90;;;;;;;10.19;55.83;99473.66;5029671;28;20046;-63
2022/04/02 04:46:22;;;;;;;3.53;1.10;;;;;;;10.16;55.81;99466.88;5029175;28;20493;-60
2022/04/02 04:48:49;;;;;;;2.47;0.80;;;;;;;10.14;55.69;99468.75;5029401;28;20095;-60
2022/04/02 04:51:18;;;;;;;3.22;1.05;;;;;;;10.13;55.75;99467.94;5029358;28;20105;-60
2022/04/02 04:53:46;;;;;;;5.65;1.10;;;;;;;10.15;55.78;99467.00;5029002;28;20053;-60
2022/04/02 04:56:12;;;;;;;2.78;0.65;;;;;;;10.14;55.78;99468.75;5028974;28;20049;-60
2022/04/02 04:58:39;;;;;;;2.47;0.90;;;;;;;10.12;56.02;99473.28;5029309;28;20050;-61
2022/04/02 05:01:06;;;;;;;3.17;0.90;;;;;;;10.11;55.99;99469.81;5029208;28;20398;-63
2022/04/02 05:03:32;;;;;;;4.45;1.10;;;;;;;10.06;55.95;99471.94;5029215;28;20123;-60
2022/04/02 05:06:00;;;;;;;3.00;1.00;;;;;;;10.11;55.99;99485.53;5029157;28;20061;-60
2022/04/02 05:08:30;;;;;;;4.40;1.20;;;;;;;10.06;55.95;99482.44;5028957;28;20123;-61
2022/04/02 05:10:57;;;;;;;2.65;1.40;;;;;;;10.05;56.00;99491.25;5029030;28;20386;-60
2022/04/02 05:13:24;;;;;;;4.90;1.13;;;;;;;10.04;56.19;99480.88;5028899;28;20049;-65
2022/04/02 05:15:51;;;;;;;4.03;1.00;;;;;;;10.06;56.05;99487.69;5029251;28;20057;-66
2022/04/02 05:18:18;;;;;;;2.83;1.20;;;;;;;10.03;56.55;99498.41;5029129;28;20056;-60
2022/04/02 05:20:45;;;;;;;2.38;1.17;;;;;;;10.05;56.38;99496.50;5028848;28;20049;-61
2022/04/02 05:23:11;;;;;;;2.13;1.08;;;;;;;10.05;56.59;99498.28;5028889;28;20091;-60
2022/04/02 05:25:39;;;;;;;4.03;1.10;;;;;;;10.01;56.69;99505.53;5028963;28;20053;-60
2022/04/02 05:28:05;;;;;;;5.50;1.02;;;;;;;10.04;56.59;99501.84;5028988;28;20112;-60
2022/04/02 05:30:39;;;;;;;5.72;1.05;;;;;;;10.04;56.61;99504.47;5029011;28;20115;-61
2022/04/02 05:33:07;;;;;;;3.65;1.10;;;;;;;10.07;56.33;99501.63;5029116;28;20553;-60
2022/04/02 05:35:53;;;;;;;5.05;0.90;;;;;;;10.06;56.31;99499.97;5029231;28;20077;-60
2022/04/02 05:38:20;;;;;;;2.72;1.08;;;;;;;10.10;56.27;99498.78;5028524;28;20457;-61
2022/04/02 05:40:47;;;;;;;5.63;1.83;;;;;;;10.12;56.25;99504.75;5028689;28;20053;-60
2022/04/02 05:43:13;;;;;;;8.15;2.53;;;;;;;10.12;56.31;99502.13;5027657;28;20049;-60
2022/04/02 05:45:41;;;;;;;8.07;2.10;;;;;;;10.13;56.44;99507.25;5028708;28;20051;-62
2022/04/02 05:48:07;;;;;;;5.57;1.80;;;;;;;10.09;56.38;99511.06;5028835;28;20508;-60
2022/04/02 05:50:34;;;;;;;3.38;1.55;;;;;;;10.12;56.25;99516.06;5028583;28;20971;-60
2022/04/02 05:53:04;;;;;;;3.63;1.60;;;;;;;10.15;56.58;99514.16;5028707;28;20041;-60
2022/04/02 05:55:32;;;;;;;4.32;1.70;;;;;;;10.19;56.50;99515.59;5028524;28;20064;-60
2022/04/02 05:57:59;;;;;;;2.80;1.77;;;;;;;10.23;56.64;99511.78;5028643;28;20053;-61
2022/04/02 06:00:27;;;;;;;5.40;2.20;;;;;;;10.27;56.60;99516.69;5032308;28;20107;-60
2022/04/02 06:03:03;;;;;;;4.47;1.83;;;;;;;10.26;56.42;99511.59;5032435;28;20046;-60
2022/04/02 06:05:29;;;;;;;6.30;2.30;;;;;;;10.29;56.70;99517.41;5031967;28;20056;-60
2022/04/02 06:07:56;;;;;;;5.63;2.38;;;;;;;10.29;56.55;99514.78;5032202;28;20572;-61
2022/04/02 06:10:22;;;;;;;6.45;2.63;;;;;;;10.28;56.53;99518.38;5032406;28;20456;-64
2022/04/02 06:12:51;;;;;;;6.85;2.50;;;;;;;10.30;56.40;99513.84;5032122;28;20103;-61
2022/04/02 06:15:19;;;;;;;4.03;2.20;;;;;;;10.30;56.51;99519.09;5031954;28;20528;-60
2022/04/02 06:17:45;;;;;;;4.10;1.70;;;;;;;10.26;56.77;99516.81;5031853;28;20128;-61
2022/04/02 06:20:13;;;;;;;6.53;2.22;;;;;;;10.27;56.76;99519.31;5032048;28;20510;-61
2022/04/02 06:22:41;;;;;;;5.30;1.90;;;;;;;10.32;56.70;99529.44;5031838;28;20046;-63
2022/04/02 06:25:08;;;;;;;2.22;1.50;;;;;;;10.35;56.61;99531.00;5031547;28;20100;-63
2022/04/02 06:27:46;;;;;;;5.80;1.65;;;;;;;10.35;56.71;99531.84;5031894;28;20555;-63
2022/04/02 06:30:15;;;;;;;6.43;1.90;;;;;;;10.41;56.60;99543.69;5031873;28;20045;-63
2022/04/02 06:32:41;;;;;;;4.57;1.60;;;;;;;10.41;56.66;99546.31;5031602;28;20482;-61
2022/04/02 06:35:09;;;;;;;4.32;1.55;;;;;;;10.52;56.28;99540.28;5031438;28;20046;-61
2022/04/02 06:37:38;;;;;;;12.38;2.15;;;;;;;10.54;56.38;99541.81;5031466;28;20049;-61
2022/04/02 06:40:09;;;;;;;4.75;1.17;;;;;;;10.83;56.00;99536.13;5031545;28;20092;-61
2022/04/02 06:42:36;;;;;;;3.35;1.30;;;;;;;11.13;55.51;99534.69;5031729;28;20052;-61
2022/04/02 06:45:04;;;;;;;5.03;1.60;;;;;;;11.14;55.56;99539.00;5031406;28;20056;-61
2022/04/02 06:47:31;;;;;;;5.70;2.28;;;;;;;11.19;55.99;99549.13;5031727;28;20056;-63
2022/04/02 06:50:01;;;;;;;7.50;2.08;;;;;;;11.23;55.98;99540.88;5031627;28;20045;-63
2022/04/02 06:52:27;;;;;;;9.52;2.28;;;;;;;11.26;55.79;99552.94;5031454;28;20045;-61
2022/04/02 06:54:54;;;;;;;5.38;1.70;;;;;;;11.24;55.82;99554.88;5031273;28;20053;-60
2022/04/02 06:57:21;;;;;;;5.68;1.75;;;;;;;11.25;55.66;99554.75;5031100;28;20486;-63
2022/04/02 06:59:48;;;;;;;6.10;1.85;;;;;;;11.36;55.51;99560.94;5031254;28;20045;-63
2022/04/02 07:02:21;;;;;;;6.97;1.95;;;;;;;11.63;54.79;99552.66;5031320;28;20068;-62
2022/04/02 07:04:48;;;;;;;6.10;1.70;;;;;;;11.55;54.95;99568.19;5031345;28;20049;-63
2022/04/02 07:07:15;;;;;;;5.88;1.80;;;;;;;11.50;55.24;99571.16;5031333;28;20060;-63
2022/04/02 07:09:41;;;;;;;3.28;1.60;;;;;;;11.47;55.35;99560.09;5030879;28;20095;-63
2022/04/02 07:12:09;;;;;;;3.28;1.42;;;;;;;11.49;55.37;99573.94;5030890;28;20072;-63
2022/04/02 07:14:36;;;;;;;6.20;2.00;;;;;;;11.48;55.41;99580.97;5031064;28;20065;-63
2022/04/02 07:17:02;;;;;;;5.50;2.13;;;;;;;11.52;55.55;99579.78;5031080;28;20103;-62
2022/04/02 07:19:31;;;;;;;4.32;1.67;;;;;;;11.50;55.56;99581.69;5031186;28;20042;-63
2022/04/02 07:21:59;;;;;;;6.07;1.85;;;;;;;11.48;54.84;99577.50;5030930;28;20056;-63
2022/04/02 07:24:26;;;;;;;8.75;3.40;;;;;;;11.56;54.03;99589.06;5030801;28;20383;-63
2022/04/02 07:26:54;;;;;;;4.63;1.67;;;;;;;11.55;53.21;99582.19;5030623;28;20068;-63
2022/04/02 07:29:20;;;;;;;5.38;1.30;;;;;;;11.59;52.47;99593.25;5030659;28;20410;-64
2022/04/02 07:31:47;;;;;;;8.88;5.38;;;;;;;11.65;52.03;99591.94;5030879;28;20099;-62
2022/04/02 07:34:19;;;;;;;9.30;4.47;;;;;;;11.71;51.81;99600.16;5030662;28;20096;-63
2022/04/02 07:36:51;;;;;;;3.53;1.58;;;;;;;11.71;51.58;99601.97;5030580;28;20057;-61
2022/04/02 07:39:32;;;;;;;3.17;1.13;;;;;;;11.77;50.88;99594.41;5030248;28;20053;-61
2022/04/02 07:42:26;;;;;;;6.10;1.42;;;;;;;11.85;50.17;99598.22;5030624;28;20076;-61
2022/04/02 07:45:03;;;;;;;4.53;1.40;;;;;;;11.92;49.56;99594.13;5026257;28;20059;-62
2022/04/02 07:47:32;;;;;;;4.38;1.13;;;;;;;11.97;48.96;99597.25;5030430;28;20584;-62
2022/04/02 07:50:04;;;;;;;4.95;1.10;;;;;;;11.97;48.33;99592.00;5030464;28;20046;-62
2022/04/02 07:52:31;;;;;;;3.80;2.13;;;;;;;12.05;47.99;99588.78;5029970;28;20050;-62
2022/04/02 07:55:06;;;;;;;3.55;0.90;;;;;;;12.16;47.69;99586.06;5030069;28;20049;-63
2022/04/02 07:57:44;;;;;;;4.05;1.27;;;;;;;12.06;47.36;99601.78;5029987;28;20049;-63
2022/04/02 08:00:19;;;;;;;2.25;0.98;;;;;;;12.22;47.16;99595.25;5030111;28;20100;-63
2022/04/02 08:02:49;;;;;;;3.50;0.90;;;;;;;12.55;46.49;99588.16;5029899;28;20077;-63
2022/04/02 08:05:19;;;;;;;2.15;0.90;;;;;;;12.99;45.24;99585.34;5030159;28;20056;-63
2022/04/02 08:07:49;;;;;;;2.42;1.00;;;;;;;13.08;44.82;99597.75;5030204;28;20068;-63
2022/04/02 08:10:19;;;;;;;3.25;0.90;;;;;;;13.30;44.09;99603.81;5030039;28;20569;-63
2022/04/02 08:12:47;;;;;;;2.22;1.00;;;;;;;13.77;43.30;99595.38;5029897;28;20099;-62
2022/04/02 08:15:18;;;;;;;2.42;0.80;;;;;;;13.59;43.36;99608.38;5029722;28;20053;-63
2022/04/02 08:17:48;;;;;;;4.28;1.00;;;;;;;13.76;42.52;99606.88;5029784;28;20506;-62
2022/04/02 08:20:15;;;;;;;5.40;1.52;;;;;;;14.21;41.19;99604.56;5029491;28;20076;-63
2022/04/02 08:22:43;;;;;;;2.10;0.70;;;;;;;13.96;41.78;99611.22;5029272;28;20103;-62
2022/04/02 08:25:10;;;;;;;3.10;0.98;;;;;;;14.04;42.01;99610.53;5029712;28;20107;-63
2022/04/02 08:27:46;;;;;;;3.75;0.93;;;;;;;14.21;41.97;99615.13;5029746;28;20577;-63
2022/04/02 08:30:16;;;;;;;2.88;0.98;;;;;;;14.53;41.02;99614.00;5029524;28;20045;-63
2022/04/02 08:33:20;;;;;;;3.40;0.75;;;;;;;14.85;40.46;99620.81;5029359;28;20046;-63
2022/04/02 08:35:49;;;;;;;2.42;0.68;;;;;;;15.07;40.40;99620.59;5029418;28;20049;-63
2022/04/02 08:38:27;;;;;;;3.05;1.00;;;;;;;15.10;40.33;99620.34;5028970;28;20468;-63
2022/04/02 08:41:09;;;;;;;2.70;1.02;;;;;;;14.77;40.96;99633.06;5029186;28;20057;-63
2022/04/02 08:44:00;;;;;;;8.65;1.70;;;;;;;14.36;41.69;99634.03;5029571;28;20057;-63
2022/04/02 08:46:36;;;;;;;3.63;0.90;;;;;;;14.84;40.36;99632.34;5029445;28;20045;-63
2022/04/02 08:49:32;;;;;;;2.17;0.73;;;;;;;15.00;40.04;99644.13;5029483;28;20111;-63
2022/04/02 08:52:05;;;;;;;3.33;1.23;;;;;;;14.81;40.48;99648.47;5029173;28;20482;-63
2022/04/02 08:54:39;;;;;;;2.50;0.90;;;;;;;14.17;41.31;99652.47;5029197;28;20048;-63
2022/04/02 08:57:27;;;;;;;2.53;0.80;;;;;;;14.29;40.62;99647.91;5029259;28;20045;-63
2022/04/02 09:00:15;;;;;;;2.90;0.95;;;;;;;15.09;39.11;99648.56;5029033;28;20493;-63
2022/04/02 09:03:21;;;;;;;2.45;0.88;;;;;;;15.94;37.36;99645.03;5029054;28;20049;-63
2022/04/02 09:06:12;;;;;;;5.83;0.83;;;;;;;16.11;37.00;99651.31;5029127;28;20482;-63
2022/04/02 09:09:10;;;;;;;3.35;1.10;;;;;;;16.36;36.55;99651.56;5028963;28;20072;-63
2022/04/02 09:12:05;;;;;;;4.82;0.90;;;;;;;16.52;36.09;99656.16;5029036;28;20500;-63
2022/04/02 09:14:35;;;;;;;2.47;1.20;;;;;;;16.88;35.53;99654.28;5028982;28;20083;-63
2022/04/02 09:17:27;;;;;;;1.75;0.70;;;;;;;17.09;35.08;99650.47;5029090;28;20095;-63
2022/04/02 09:20:30;;;;;;;4.47;1.02;;;;;;;16.96;35.81;99657.03;5029081;28;20413;-63
2022/04/02 09:23:16;;;;;;;2.95;1.13;;;;;;;17.45;34.44;99658.31;5029035;28;20049;-63
2022/04/02 09:26:01;;;;;;;2.13;0.70;;;;;;;17.67;34.40;99656.06;5028885;28;20289;-63
2022/04/02 09:28:34;;;;;;;2.95;0.95;;;;;;;17.89;34.02;99654.66;5028738;28;20056;-63
2022/04/02 09:31:20;;;;;;;2.78;0.80;;;;;;;18.01;33.69;99650.72;5028948;28;20091;-62
2022/04/02 09:34:24;;;;;;;2.00;0.70;;;;;;;17.48;33.82;99670.41;5030216;28;20049;-63
2022/04/02 09:37:03;;;;;;;14.52;1.63;;;;;;;17.73;33.11;99661.56;5031712;28;20053;-69
2022/04/02 09:39:55;;;;;;;2.70;1.05;;;;;;;17.89;32.84;99662.59;5032684;28;20057;-63
2022/04/02 09:42:21;;;;;;;2.33;0.77;;;;;;;18.17;32.31;99673.84;5032611;28;20049;-63
2022/04/02 09:44:56;;;;;;;1.70;0.80;;;;;;;18.20;32.58;99670.03;5033149;28;20056;-63
2022/04/02 09:47:45;;;;;;;5.03;1.13;;;;;;;18.52;32.31;99671.88;5032699;28;20448;-63
2022/04/02 09:50:17;;;;;;;5.20;1.05;;;;;;;18.81;32.39;99669.75;5032423;28;20050;-63
2022/04/02 09:52:46;;;;;;;3.08;0.80;;;;;;;18.96;31.99;99667.25;5032274;28;20068;-64
2022/04/02 09:55:16;;;;;;;3.22;1.10;;;;;;;19.11;32.00;99673.56;5032532;28;20104;-63
2022/04/02 09:57:45;;;;;;;2.53;0.93;;;;;;;19.28;31.77;99665.56;5032156;28;20081;-63
2022/04/02 10:00:16;;;;;;;3.33;0.80;;;;;;;19.53;31.42;99671.63;5032314;28;20140;-63
2022/04/02 10:03:01;;;;;;;3.45;0.63;;;;;;;19.26;31.64;99665.69;5032318;28;20049;-60
2022/04/02 10:05:54;;;;;;;2.45;1.00;;;;;;;19.65;30.97;99664.09;5032075;28;20128;-63
2022/04/02 10:08:45;;;;;;;3.67;1.00;;;;;;;20.02;30.59;99667.94;5032330;28;20077;-63
2022/04/02 10:11:18;;;;;;;2.38;1.13;;;;;;;20.20;30.58;99668.50;5032193;28;20049;-63
2022/04/02 10:13:45;;;;;;;3.20;0.80;;;;;;;19.40;31.29;99674.81;5032060;28;20561;-64
2022/04/02 10:16:16;;;;;;;2.70;0.93;;;;;;;18.64;33.08;99677.72;5032236;28;20053;-63
2022/04/02 10:18:44;;;;;;;3.17;1.08;;;;;;;18.16;33.59;99679.31;5031878;28;20053;-63
2022/04/02 10:21:13;;;;;;;2.83;0.88;;;;;;;19.46;32.09;99676.78;5031822;28;20041;-63
2022/04/02 10:23:48;;;;;;;5.07;1.00;;;;;;;19.90;30.96;99672.81;5031786;28;20482;-63
2022/04/02 10:26:17;;;;;;;2.50;1.17;;;;;;;20.46;30.29;99672.63;5031716;28;20084;-63
2022/04/02 10:28:58;;;;;;;3.25;1.10;;;;;;;20.23;30.49;99673.44;5031595;28;20046;-63
2022/04/02 10:31:33;;;;;;;4.28;1.00;;;;;;;19.89;30.90;99673.81;5031703;28;20081;-63
2022/04/02 10:34:12;;;;;;;2.85;1.10;;;;;;;18.62;32.67;99686.84;5031647;28;20076;-63
2022/04/02 10:36:51;;;;;;;2.67;0.90;;;;;;;17.75;33.58;99685.28;5031623;28;20053;-64
2022/04/02 10:39:24;;;;;;;3.70;0.93;;;;;;;17.62;33.65;99693.69;5030214;28;20417;-64
2022/04/02 10:41:56;;;;;;;3.60;0.88;;;;;;;17.69;33.69;99696.56;5031681;28;20041;-63
2022/04/02 10:44:48;;;;;;;4.53;1.23;;;;;;;17.60;32.98;99696.50;5031049;28;20053;-63
2022/04/02 10:47:18;;;;;;;2.53;0.90;;;;;;;16.99;34.48;99706.25;5031427;28;20095;-63
2022/04/02 10:49:49;;;;;;;4.75;1.35;;;;;;;16.91;34.52;99714.13;5031520;28;20049;-63
2022/04/02 10:52:18;;;;;;;2.10;1.20;;;;;;;16.62;34.52;99720.47;5031354;28;20049;-63
2022/04/02 10:54:49;;;;;;;2.80;0.85;;;;;;;16.57;34.31;99720.09;5031212;28;20053;-63
2022/04/02 10:57:17;;;;;;;9.25;6.28;;;;;;;16.48;34.41;99716.53;5031274;28;20081;-64
2022/04/02 10:59:46;;;;;;;16.77;9.13;;;;;;;16.27;35.06;99728.22;5031205;28;20115;-62
2022/04/02 11:02:23;;;;;;;3.90;1.20;;;;;;;16.27;35.15;99720.28;5031096;28;20045;-62
2022/04/02 11:04:57;;;;;;;2.97;1.00;;;;;;;16.03;35.67;99725.31;5031291;28;20045;-62
2022/04/02 11:07:34;;;;;;;4.23;1.00;;;;;;;15.81;35.51;99738.78;5030990;28;20041;-63
2022/04/02 11:10:01;;;;;;;3.53;1.20;;;;;;;15.73;35.72;99730.72;5031351;28;20049;-62
2022/04/02 11:12:45;;;;;;;3.75;1.08;;;;;;;15.72;35.45;99728.19;5030858;28;20053;-62
2022/04/02 11:15:20;;;;;;;3.05;1.13;;;;;;;15.78;35.21;99738.22;5030981;28;20065;-63
2022/04/02 11:17:49;;;;;;;2.88;1.05;;;;;;;15.72;35.21;99742.28;5030865;28;20046;-63
2022/04/02 11:20:19;;;;;;;2.35;1.00;;;;;;;15.73;34.87;99736.00;5030756;28;20046;-63
2022/04/02 11:22:51;;;;;;;4.32;1.38;;;;;;;15.85;35.13;99744.63;5031050;28;20103;-63
2022/04/02 11:25:28;;;;;;;3.17;1.20;;;;;;;15.81;34.76;99737.94;5030696;28;20049;-62
2022/04/02 11:28:13;;;;;;;3.28;1.10;;;;;;;15.83;34.92;99741.28;5030952;28;20057;-63
2022/04/02 11:31:03;;;;;;;3.40;1.48;;;;;;;15.82;35.13;99743.09;5030536;28;20057;-63
2022/04/02 11:33:33;;;;;;;2.58;1.00;;;;;;;15.79;34.94;99743.34;5030525;28;20145;-62
2022/04/02 11:36:05;;;;;;;4.80;1.50;;;;;;;15.87;34.72;99747.13;5030306;28;20485;-62
2022/04/02 11:38:38;;;;;;;4.38;1.00;;;;;;;15.85;34.93;99743.81;5030662;28;20069;-62
2022/04/02 11:41:14;;;;;;;2.47;1.17;;;;;;;15.97;34.60;99748.75;5030490;28;20099;-62
2022/04/02 11:43:45;;;;;;;5.22;1.10;;;;;;;16.23;34.32;99745.41;5030249;28;20552;-63
2022/04/02 11:46:14;;;;;;;3.03;1.05;;;;;;;16.75;33.56;99742.13;5030555;28;20053;-62
2022/04/02 11:48:54;;;;;;;3.05;1.10;;;;;;;16.46;33.68;99751.09;5030076;28;20099;-62
2022/04/02 11:51:27;;;;;;;3.85;1.10;;;;;;;16.43;34.02;99762.00;5030248;28;20046;-63
2022/04/02 11:54:07;;;;;;;1.75;0.98;;;;;;;16.53;33.35;99766.41;5030231;28;20049;-63
2022/04/02 11:56:43;;;;;;;2.78;1.10;;;;;;;16.30;33.92;99765.00;5029460;28;20544;-63